Time;durP1;ratioP1;P1;durP2;ratioP2;P2;SDS_P1;SDS_P2;PMS_P1;PMS_P2;Temp;Humidity;BMP_temperature;BMP_pressure;BME280_temperature;BME280_humidity;BME280_pressure;Samples;Min_cycle;Max_cycle;Signal;HPM_P1;HPM_P2
2023/03/25 00:01:53;;;;;;;5.60;1.52;;;;;;;8.69;100.00;100342.91;5206263;28;20080;-80
2023/03/25 00:04:26;;;;;;;9.23;2.20;;;;;;;8.69;100.00;100329.53;5206241;28;20033;-81
2023/03/25 00:06:56;;;;;;;10.45;1.27;;;;;;;8.64;100.00;100323.03;5205828;28;20041;-80
2023/03/25 00:09:27;;;;;;;7.13;1.67;;;;;;;8.58;100.00;100324.50;5206204;28;20033;-80
2023/03/25 00:11:57;;;;;;;8.90;1.17;;;;;;;8.49;100.00;100338.88;5204127;28;20083;-80
2023/03/25 00:14:28;;;;;;;9.13;1.33;;;;;;;8.43;100.00;100335.00;5201744;28;20021;-81
2023/03/25 00:17:00;;;;;;;6.05;1.63;;;;;;;8.40;100.00;100338.03;5204156;28;20383;-80
2023/03/25 00:19:30;;;;;;;6.03;1.13;;;;;;;8.37;100.00;100338.34;5205715;28;20105;-81
2023/03/25 00:22:01;;;;;;;9.38;1.80;;;;;;;8.37;100.00;100349.03;5205683;28;20468;-81
2023/03/25 00:24:31;;;;;;;1.92;0.80;;;;;;;8.41;100.00;100350.38;5205975;28;20029;-80
2023/03/25 00:27:02;;;;;;;5.70;1.15;;;;;;;8.46;100.00;100348.06;5205353;28;20506;-81
2023/03/25 00:29:33;;;;;;;2.67;0.95;;;;;;;8.50;100.00;100344.06;5205987;28;20720;-80
2023/03/25 00:32:04;;;;;;;8.10;1.30;;;;;;;8.51;100.00;100351.06;5203889;28;20021;-81
2023/03/25 00:34:40;;;;;;;4.90;1.10;;;;;;;8.55;100.00;100340.88;5204460;28;20017;-80
2023/03/25 00:37:10;;;;;;;4.45;1.00;;;;;;;8.61;100.00;100347.41;5204730;28;20025;-80
2023/03/25 00:39:41;;;;;;;5.75;1.35;;;;;;;8.53;100.00;100338.38;5204148;28;20033;-80
2023/03/25 00:42:15;;;;;;;5.65;1.30;;;;;;;8.48;100.00;100351.41;5205277;28;20021;-81
2023/03/25 00:44:47;;;;;;;10.52;1.50;;;;;;;8.46;100.00;100348.06;5206659;28;20085;-80
2023/03/25 00:47:20;;;;;;;5.68;1.38;;;;;;;8.41;100.00;100345.03;5220150;28;20029;-80
2023/03/25 00:49:51;;;;;;;6.10;1.33;;;;;;;8.43;100.00;100352.88;5204439;28;20080;-80
2023/03/25 00:52:22;;;;;;;3.00;1.20;;;;;;;8.43;100.00;100352.88;5205255;28;20386;-80
2023/03/25 00:54:52;;;;;;;5.68;1.58;;;;;;;8.47;100.00;100360.41;5205484;28;20018;-80
2023/03/25 00:57:23;;;;;;;6.63;1.67;;;;;;;8.46;100.00;100348.06;5205964;28;20032;-81
2023/03/25 00:59:53;;;;;;;5.93;1.15;;;;;;;8.45;100.00;100357.09;5206420;28;20120;-81
2023/03/25 01:02:24;;;;;;;4.90;1.23;;;;;;;8.44;100.00;100349.25;5205402;28;20034;-80
2023/03/25 01:04:56;;;;;;;9.10;1.60;;;;;;;8.41;100.00;100361.06;5204395;28;20487;-80
2023/03/25 01:07:28;;;;;;;6.57;1.20;;;;;;;8.42;100.00;100356.56;5203503;28;20052;-80
2023/03/25 01:09:59;;;;;;;10.05;1.60;;;;;;;8.40;100.00;100353.22;5204583;28;20037;-79
2023/03/25 01:12:29;;;;;;;4.65;1.40;;;;;;;8.35;100.00;100364.38;5199716;28;20061;-80
2023/03/25 01:15:00;;;;;;;9.65;1.52;;;;;;;8.20;100.00;100358.00;5203962;28;20101;-80
2023/03/25 01:17:30;;;;;;;5.45;1.25;;;;;;;8.13;100.00;100352.44;5203449;28;20086;-80
2023/03/25 01:20:01;;;;;;;8.68;2.67;;;;;;;8.09;100.00;100361.81;5203387;28;20026;-80
2023/03/25 01:22:31;;;;;;;4.90;1.20;;;;;;;8.09;100.00;100356.47;5203741;28;20445;-80
2023/03/25 01:25:02;;;;;;;13.35;1.63;;;;;;;8.09;100.00;100353.78;5203816;28;20029;-81
2023/03/25 01:27:33;;;;;;;8.93;1.83;;;;;;;8.11;100.00;100345.59;5203334;28;20346;-81
2023/03/25 01:30:04;;;;;;;9.25;1.40;;;;;;;8.11;100.00;100342.94;5203378;28;20037;-80
2023/03/25 01:32:34;;;;;;;7.38;1.92;;;;;;;8.13;100.00;100343.59;5216962;28;20059;-80
2023/03/25 01:35:05;;;;;;;6.82;2.28;;;;;;;8.13;100.00;100336.41;5202362;28;20022;-80
2023/03/25 01:37:37;;;;;;;6.60;1.40;;;;;;;8.20;100.00;100336.63;5205058;28;20025;-80
2023/03/25 01:40:15;;;;;;;7.05;1.48;;;;;;;8.14;100.00;100338.09;5207070;28;20063;-80
2023/03/25 01:42:46;;;;;;;8.30;1.30;;;;;;;8.16;100.00;100336.09;5207912;28;20060;-81
2023/03/25 01:45:22;;;;;;;8.75;1.55;;;;;;;8.18;100.00;100336.78;5207851;28;20053;-81
2023/03/25 01:48:01;;;;;;;8.63;1.70;;;;;;;8.18;100.00;100333.25;5207213;28;20460;-80
2023/03/25 01:50:35;;;;;;;11.18;1.75;;;;;;;8.20;100.00;100332.09;5193513;28;20460;-81
2023/03/25 01:53:07;;;;;;;7.82;1.42;;;;;;;8.24;100.00;100322.78;5206769;28;20025;-80
2023/03/25 01:55:39;;;;;;;11.05;1.45;;;;;;;8.24;100.00;100311.25;5207188;28;20028;-81
2023/03/25 01:58:14;;;;;;;4.78;1.85;;;;;;;8.30;100.00;100322.09;5207616;28;20083;-81
2023/03/25 02:00:46;;;;;;;12.80;3.58;;;;;;;8.31;100.00;100314.91;5207444;28;20108;-81
2023/03/25 02:03:21;;;;;;;5.82;1.65;;;;;;;8.36;100.00;100323.31;5207657;28;20026;-81
2023/03/25 02:06:01;;;;;;;9.18;2.15;;;;;;;8.37;100.00;100322.31;5206929;28;20055;-81
2023/03/25 02:08:37;;;;;;;6.78;1.63;;;;;;;8.31;100.00;100320.25;5206789;28;20037;-81
2023/03/25 02:11:09;;;;;;;9.45;1.70;;;;;;;8.28;100.00;100317.91;5207071;28;20025;-80
2023/03/25 02:13:40;;;;;;;8.48;1.90;;;;;;;8.23;100.00;100321.09;5203172;28;20052;-81
2023/03/25 02:16:28;;;;;;;10.23;1.73;;;;;;;8.21;100.00;100314.22;5206366;28;20025;-81
2023/03/25 02:19:55;;;;;;;9.68;1.70;;;;;;;8.16;100.00;100309.38;5206973;28;20029;-81
2023/03/25 02:23:06;;;;;;;10.20;1.65;;;;;;;8.18;100.00;100320.75;5193810;28;20059;-81
2023/03/25 02:26:18;;;;;;;9.55;1.77;;;;;;;8.18;100.00;100317.22;5207402;28;20037;-81
2023/03/25 02:29:26;;;;;;;10.25;1.85;;;;;;;8.15;100.00;100307.72;5206889;28;20365;-81
2023/03/25 02:32:06;;;;;;;15.90;3.70;;;;;;;8.19;100.00;100300.22;5205571;28;20089;-81
2023/03/25 02:34:52;;;;;;;12.50;1.70;;;;;;;8.23;100.00;100280.16;5207049;28;20106;-81
2023/03/25 02:37:59;;;;;;;10.13;1.88;;;;;;;8.28;100.00;100296.53;5206587;28;20029;-81
2023/03/25 02:40:39;;;;;;;11.13;1.65;;;;;;;8.31;100.00;100293.53;5205723;28;20083;-81
2023/03/25 02:43:17;;;;;;;10.73;2.00;;;;;;;8.29;100.00;100304.41;5205831;28;20022;-81
2023/03/25 02:45:53;;;;;;;14.20;2.17;;;;;;;8.31;100.00;100309.56;5206189;28;20047;-81
2023/03/25 02:48:33;;;;;;;14.98;1.58;;;;;;;8.31;100.00;100310.41;5205754;28;20513;-82
2023/03/25 02:51:11;;;;;;;11.60;1.77;;;;;;;8.35;100.00;100299.41;5206446;28;20557;-82
2023/03/25 02:53:44;;;;;;;9.15;1.38;;;;;;;8.37;100.00;100295.56;5206248;28;20044;-81
2023/03/25 02:56:21;;;;;;;8.60;1.85;;;;;;;8.42;100.00;100282.56;5206377;28;20029;-81
2023/03/25 02:58:55;;;;;;;9.35;1.65;;;;;;;8.39;100.00;100308.81;5206343;28;20026;-81
2023/03/25 03:01:29;;;;;;;10.40;1.58;;;;;;;8.40;100.00;100284.56;5205834;28;20386;-81
2023/03/25 03:04:00;;;;;;;12.18;1.70;;;;;;;8.39;100.00;100282.06;5209943;28;20042;-81
2023/03/25 03:06:36;;;;;;;10.65;1.60;;;;;;;8.42;100.00;100295.09;5209444;28;20108;-81
2023/03/25 03:09:24;;;;;;;5.80;1.45;;;;;;;8.40;100.00;100297.94;5209747;28;20401;-80
2023/03/25 03:12:32;;;;;;;10.82;1.67;;;;;;;8.39;100.00;100301.63;5209165;28;20025;-81
2023/03/25 03:15:22;;;;;;;6.88;1.40;;;;;;;8.33;100.00;100304.88;5195442;28;20435;-81
2023/03/25 03:18:18;;;;;;;10.05;1.83;;;;;;;8.27;100.00;100300.22;5206257;28;20436;-81
2023/03/25 03:20:56;;;;;;;10.60;1.83;;;;;;;8.15;100.00;100307.72;5206411;28;20355;-81
2023/03/25 03:23:35;;;;;;;6.35;1.63;;;;;;;8.15;100.00;100299.69;5207342;28;20394;-81
2023/03/25 03:26:15;;;;;;;14.75;2.90;;;;;;;8.09;100.00;100294.19;5193675;28;20021;-81
2023/03/25 03:28:59;;;;;;;16.55;1.98;;;;;;;8.05;100.00;100305.19;5206356;28;20017;-81
2023/03/25 03:31:40;;;;;;;9.50;1.30;;;;;;;8.04;100.00;100305.34;5206801;28;20064;-81
2023/03/25 03:34:21;;;;;;;17.50;2.13;;;;;;;7.94;100.00;100297.47;5207337;28;20112;-80
2023/03/25 03:36:54;;;;;;;19.70;4.43;;;;;;;7.89;100.00;100301.63;5207113;28;20033;-81
2023/03/25 03:39:31;;;;;;;9.98;1.88;;;;;;;7.87;100.00;100291.09;5207015;28;20164;-80
2023/03/25 03:42:08;;;;;;;4.28;1.50;;;;;;;7.87;100.00;100299.09;5206783;28;20064;-81
2023/03/25 03:44:42;;;;;;;11.40;1.50;;;;;;;7.92;100.00;100296.78;5206080;28;20490;-81
2023/03/25 03:47:20;;;;;;;12.25;1.40;;;;;;;7.98;100.00;100309.50;5205616;28;20036;-81
2023/03/25 03:49:58;;;;;;;6.93;1.42;;;;;;;8.03;100.00;100303.66;5205264;28;20446;-81
2023/03/25 03:52:36;;;;;;;13.40;2.17;;;;;;;8.07;100.00;100313.03;5208089;28;20056;-82
2023/03/25 03:55:12;;;;;;;8.45;1.55;;;;;;;8.08;100.00;100306.69;5209599;28;20096;-81
2023/03/25 03:57:48;;;;;;;12.10;1.45;;;;;;;8.08;100.00;100306.69;5208165;28;20029;-82
2023/03/25 04:00:40;;;;;;;11.68;1.73;;;;;;;8.10;100.00;100309.22;5205624;28;20385;-81
2023/03/25 04:03:16;;;;;;;13.45;2.05;;;;;;;8.08;100.00;100311.19;5205986;28;20025;-79
2023/03/25 04:05:53;;;;;;;8.23;1.50;;;;;;;8.03;100.00;100301.00;5206074;28;20030;-79
2023/03/25 04:08:30;;;;;;;9.25;1.45;;;;;;;7.98;100.00;100312.19;5206053;28;20430;-79
2023/03/25 04:11:06;;;;;;;13.70;1.33;;;;;;;7.91;100.00;100307.66;5205979;28;20474;-79
2023/03/25 04:13:41;;;;;;;9.40;1.55;;;;;;;7.86;100.00;100308.13;5200078;28;20025;-79
2023/03/25 04:16:11;;;;;;;5.43;1.20;;;;;;;7.81;100.00;100306.94;5206195;28;20047;-79
2023/03/25 04:18:42;;;;;;;8.73;1.88;;;;;;;7.82;100.00;100297.94;5206307;28;20501;-79
2023/03/25 04:21:14;;;;;;;9.93;2.00;;;;;;;7.79;100.00;100312.44;5198433;28;20021;-80
2023/03/25 04:23:45;;;;;;;18.15;2.30;;;;;;;7.78;100.00;100306.28;5200798;28;20021;-80
2023/03/25 04:26:15;;;;;;;11.63;2.25;;;;;;;7.80;100.00;100303.44;5206214;28;20144;-80
2023/03/25 04:28:46;;;;;;;13.02;2.47;;;;;;;7.82;100.00;100309.44;5205628;28;20041;-79
2023/03/25 04:31:16;;;;;;;18.08;3.05;;;;;;;7.83;100.00;100310.28;5205865;28;20112;-79
2023/03/25 04:33:47;;;;;;;19.75;1.90;;;;;;;7.82;100.00;100306.78;5205601;28;20057;-79
2023/03/25 04:36:18;;;;;;;9.45;2.25;;;;;;;7.78;100.00;100308.94;5206173;28;20033;-80
2023/03/25 04:38:51;;;;;;;16.80;3.13;;;;;;;7.78;100.00;100314.28;5206685;28;20028;-79
2023/03/25 04:41:22;;;;;;;14.57;2.13;;;;;;;7.76;100.00;100305.59;5208482;28;20037;-79
2023/03/25 04:43:52;;;;;;;8.57;1.45;;;;;;;7.82;100.00;100321.97;5208387;28;20053;-80
2023/03/25 04:46:23;;;;;;;14.50;2.30;;;;;;;7.81;100.00;100312.28;5207704;28;20029;-79
2023/03/25 04:48:55;;;;;;;12.43;1.73;;;;;;;7.85;100.00;100319.81;5208846;28;20108;-80
2023/03/25 04:51:26;;;;;;;12.07;1.67;;;;;;;7.86;100.00;100308.13;5207727;28;20048;-79
2023/03/25 04:53:56;;;;;;;9.18;1.85;;;;;;;7.87;100.00;100324.97;5208370;28;20034;-79
2023/03/25 04:56:27;;;;;;;14.20;2.38;;;;;;;7.89;100.00;100312.31;5206813;28;20505;-78
2023/03/25 04:58:57;;;;;;;6.60;1.55;;;;;;;7.90;100.00;100319.34;5207373;28;20029;-79
2023/03/25 05:01:30;;;;;;;8.88;1.65;;;;;;;7.88;100.00;100303.47;5207533;28;20029;-80
2023/03/25 05:04:04;;;;;;;16.10;2.63;;;;;;;7.90;100.00;100303.31;5207962;28;20493;-79
2023/03/25 05:06:37;;;;;;;10.80;1.90;;;;;;;7.88;100.00;100322.16;5207299;28;20402;-80
2023/03/25 05:09:11;;;;;;;15.13;2.00;;;;;;;7.91;100.00;100323.66;5207790;28;20112;-79
2023/03/25 05:11:42;;;;;;;14.88;2.08;;;;;;;7.85;100.00;100322.47;5207235;28;20033;-79
2023/03/25 05:14:15;;;;;;;11.65;2.15;;;;;;;7.83;100.00;100324.50;5203728;28;20032;-79
2023/03/25 05:16:47;;;;;;;7.25;1.58;;;;;;;7.83;100.00;100324.50;5207140;28;20091;-79
2023/03/25 05:19:17;;;;;;;12.98;1.90;;;;;;;7.83;100.00;100331.63;5207272;28;20405;-79
2023/03/25 05:21:48;;;;;;;10.30;1.38;;;;;;;7.83;100.00;100324.50;5195074;28;20030;-79
2023/03/25 05:24:18;;;;;;;13.73;2.10;;;;;;;7.85;100.00;100338.50;5206027;28;20025;-79
2023/03/25 05:26:49;;;;;;;10.48;1.90;;;;;;;7.85;100.00;100349.19;5207095;28;20034;-79
2023/03/25 05:29:19;;;;;;;15.45;1.80;;;;;;;7.89;100.00;100347.88;5207682;28;20026;-79
2023/03/25 05:31:50;;;;;;;9.27;1.95;;;;;;;7.86;100.00;100334.84;5207170;28;20041;-79
2023/03/25 05:34:20;;;;;;;15.88;3.83;;;;;;;7.88;100.00;100338.19;5207414;28;20021;-79
2023/03/25 05:36:53;;;;;;;13.00;2.40;;;;;;;7.87;100.00;100331.16;5206665;28;20029;-79
2023/03/25 05:39:24;;;;;;;13.15;1.65;;;;;;;7.86;100.00;100337.50;5207226;28;20097;-79
2023/03/25 05:42:01;;;;;;;16.50;2.38;;;;;;;7.84;100.00;100338.69;5206999;28;20029;-79
2023/03/25 05:44:31;;;;;;;10.13;1.58;;;;;;;7.82;100.00;100333.47;5222470;28;20421;-79
2023/03/25 05:47:02;;;;;;;7.57;2.13;;;;;;;7.80;100.00;100340.81;5206541;28;20037;-79
2023/03/25 05:49:32;;;;;;;16.38;2.30;;;;;;;7.77;100.00;100346.47;5207805;28;20075;-80
2023/03/25 05:52:03;;;;;;;15.43;3.45;;;;;;;7.72;100.00;100348.78;5206301;28;20053;-79
2023/03/25 05:54:37;;;;;;;13.30;1.65;;;;;;;7.74;100.00;100347.66;5207262;28;20029;-79
2023/03/25 05:57:08;;;;;;;6.65;1.80;;;;;;;7.75;100.00;100351.16;5206676;28;20026;-78
2023/03/25 05:59:39;;;;;;;15.25;1.63;;;;;;;7.71;100.00;100347.94;5206530;28;20486;-74
2023/03/25 06:02:13;;;;;;;11.73;2.42;;;;;;;7.74;100.00;100341.47;5202876;28;20025;-75
2023/03/25 06:04:46;;;;;;;9.30;1.77;;;;;;;7.69;100.00;100354.47;5203051;28;20082;-76
2023/03/25 06:10:04;;;;;;;13.23;1.85;;;;;;;7.66;100.00;100357.44;5203081;28;20378;-75
2023/03/25 06:12:37;;;;;;;14.40;3.47;;;;;;;7.67;100.00;100364.44;5198918;28;20033;-75
2023/03/25 06:15:09;;;;;;;13.52;2.67;;;;;;;7.68;100.00;100358.97;5203086;28;20104;-75
2023/03/25 06:17:40;;;;;;;20.50;2.15;;;;;;;7.69;100.00;100365.16;5202088;28;20528;-76
2023/03/25 06:20:11;;;;;;;16.45;2.97;;;;;;;7.72;100.00;100370.16;5202580;28;20049;-76
2023/03/25 06:22:44;;;;;;;23.50;1.90;;;;;;;7.75;100.00;100365.34;5202645;28;20059;-75
2023/03/25 06:25:17;;;;;;;14.27;2.33;;;;;;;7.81;100.00;100371.03;5202639;28;20090;-75
2023/03/25 06:27:49;;;;;;;14.25;2.97;;;;;;;7.90;100.00;100373.59;5202366;28;20029;-76
2023/03/25 06:30:20;;;;;;;12.05;2.30;;;;;;;8.18;100.00;100373.34;5199628;28;20040;-75
2023/03/25 06:32:54;;;;;;;14.80;2.25;;;;;;;8.63;100.00;100389.00;5202289;28;20026;-76
2023/03/25 06:35:25;;;;;;;19.35;2.42;;;;;;;9.10;100.00;100368.81;5218126;28;20036;-76
2023/03/25 06:37:55;;;;;;;12.38;1.90;;;;;;;9.32;100.00;100379.66;5205097;28;20033;-76
2023/03/25 06:40:26;;;;;;;11.05;2.17;;;;;;;9.16;100.00;100371.66;5206467;28;20437;-76
2023/03/25 06:42:57;;;;;;;13.32;1.95;;;;;;;9.05;100.00;100382.72;5206583;28;20038;-76
2023/03/25 06:45:27;;;;;;;9.18;2.63;;;;;;;8.96;100.00;100371.16;5193863;28;20028;-76
2023/03/25 06:47:59;;;;;;;14.98;2.20;;;;;;;8.67;100.00;100370.81;5205151;28;20030;-76
2023/03/25 06:50:29;;;;;;;17.73;2.20;;;;;;;8.59;100.00;100374.31;5206498;28;20025;-76
2023/03/25 06:53:02;;;;;;;15.43;2.05;;;;;;;8.46;100.00;100377.47;5206813;28;20032;-76
2023/03/25 06:55:32;;;;;;;18.63;1.90;;;;;;;8.45;100.00;100386.50;5206801;28;20371;-75
2023/03/25 06:58:03;;;;;;;14.30;2.95;;;;;;;8.41;100.00;100373.59;5206239;28;20028;-75
2023/03/25 07:00:34;;;;;;;15.85;3.13;;;;;;;8.56;100.00;100382.66;5206715;28;20037;-75
2023/03/25 07:03:04;;;;;;;12.82;2.88;;;;;;;8.74;100.00;100388.72;5206335;28;20060;-75
2023/03/25 07:05:35;;;;;;;13.35;2.65;;;;;;;9.24;100.00;100377.00;5206429;28;20029;-75
2023/03/25 07:08:05;;;;;;;14.88;2.50;;;;;;;9.85;100.00;100393.44;5205899;28;20102;-75
2023/03/25 07:10:36;;;;;;;16.77;2.72;;;;;;;9.88;100.00;100387.72;5206157;28;20131;-75
2023/03/25 07:13:08;;;;;;;19.83;2.67;;;;;;;9.53;100.00;100392.50;5206549;28;20022;-75
2023/03/25 07:15:39;;;;;;;14.55;3.00;;;;;;;9.16;100.00;100398.41;5206723;28;20017;-75
2023/03/25 07:18:09;;;;;;;18.80;2.10;;;;;;;9.04;100.00;100381.88;5205430;28;20505;-75
2023/03/25 07:20:41;;;;;;;15.10;2.30;;;;;;;9.01;100.00;100387.56;5202945;28;20025;-75
2023/03/25 07:23:12;;;;;;;18.95;2.45;;;;;;;9.12;100.00;100390.91;5195950;28;20029;-74
2023/03/25 07:25:42;;;;;;;15.52;2.55;;;;;;;9.00;100.00;100388.56;5221256;28;20021;-75
2023/03/25 07:28:13;;;;;;;21.95;2.92;;;;;;;8.88;100.00;100405.09;5205944;28;20056;-75
2023/03/25 07:30:44;;;;;;;13.40;2.88;;;;;;;8.74;100.00;100398.59;5205263;28;20036;-75
2023/03/25 07:33:15;;;;;;;23.35;4.05;;;;;;;8.82;100.00;100412.78;5204355;28;20028;-75
2023/03/25 07:35:45;;;;;;;22.45;4.25;;;;;;;8.92;100.00;100398.41;5205835;28;20014;-74
2023/03/25 07:38:16;;;;;;;18.08;2.72;;;;;;;8.97;100.00;100410.28;5205211;28;20040;-75
2023/03/25 07:40:46;;;;;;;21.52;2.90;;;;;;;9.34;100.00;100411.63;5220920;28;20024;-75
2023/03/25 07:43:17;;;;;;;25.10;2.90;;;;;;;9.56;100.00;100396.69;5205411;28;20056;-75
2023/03/25 07:45:47;;;;;;;21.05;2.90;;;;;;;9.54;100.00;100398.72;5205330;28;20022;-75
2023/03/25 07:48:18;;;;;;;21.92;2.63;;;;;;;9.63;100.00;100410.22;5205200;28;20064;-75
2023/03/25 07:50:50;;;;;;;10.20;2.40;;;;;;;9.99;100.00;100416.84;5201373;28;20442;-73
2023/03/25 07:53:21;;;;;;;17.27;3.10;;;;;;;9.72;100.00;100411.91;5205175;28;20025;-76
2023/03/25 07:55:51;;;;;;;21.52;3.35;;;;;;;9.79;100.00;100400.34;5204379;28;20068;-75
2023/03/25 07:58:23;;;;;;;24.77;2.78;;;;;;;9.61;100.00;100413.09;5204401;28;20553;-76
2023/03/25 08:00:56;;;;;;;12.52;2.40;;;;;;;9.67;100.00;100412.41;5204596;28;20034;-74
2023/03/25 08:03:27;;;;;;;24.33;3.28;;;;;;;9.62;100.00;100413.94;5205054;28;20040;-75
2023/03/25 08:06:01;;;;;;;19.63;2.53;;;;;;;9.66;100.00;100420.63;5204385;28;20490;-75
2023/03/25 08:08:31;;;;;;;16.25;2.83;;;;;;;9.62;100.00;100428.16;5204730;28;20029;-75
2023/03/25 08:11:02;;;;;;;21.55;2.88;;;;;;;9.59;100.00;100434.69;5204557;28;20027;-75
2023/03/25 08:13:33;;;;;;;20.30;2.65;;;;;;;9.62;100.00;100441.53;5200951;28;20025;-75
2023/03/25 08:16:10;;;;;;;25.58;3.58;;;;;;;9.53;100.00;100434.53;5201438;28;20021;-76
2023/03/25 08:18:43;;;;;;;21.83;3.95;;;;;;;9.45;100.00;100439.91;5206362;28;20037;-74
2023/03/25 08:21:14;;;;;;;25.00;3.53;;;;;;;9.27;100.00;100448.94;5204312;28;20021;-75
2023/03/25 08:23:49;;;;;;;22.70;2.50;;;;;;;9.29;100.00;100451.47;5200999;28;20474;-74
2023/03/25 08:26:19;;;;;;;17.00;2.67;;;;;;;9.24;100.00;100453.81;5192027;28;20022;-74
2023/03/25 08:28:50;;;;;;;21.58;3.53;;;;;;;9.01;100.00;100453.59;5199799;28;20270;-74
2023/03/25 08:31:23;;;;;;;18.50;3.20;;;;;;;8.89;100.00;100444.25;5204100;28;20040;-75
2023/03/25 08:33:54;;;;;;;22.00;3.25;;;;;;;8.89;100.00;100444.25;5203251;28;20044;-75
2023/03/25 08:36:24;;;;;;;18.38;2.88;;;;;;;8.89;100.00;100444.25;5219012;28;20048;-75
2023/03/25 08:38:55;;;;;;;32.10;4.75;;;;;;;9.08;100.00;100450.09;5202761;28;20040;-75
2023/03/25 08:41:25;;;;;;;29.75;3.20;;;;;;;9.27;100.00;100442.75;5203428;28;20028;-75
2023/03/25 08:43:56;;;;;;;25.67;4.03;;;;;;;9.45;100.00;100443.41;5203907;28;20617;-76
2023/03/25 08:46:26;;;;;;;21.65;3.13;;;;;;;9.89;100.00;100426.06;5203135;28;20183;-75
2023/03/25 08:48:57;;;;;;;27.20;3.72;;;;;;;10.18;100.00;100441.56;5203940;28;20033;-75
2023/03/25 08:51:28;;;;;;;21.23;4.30;;;;;;;10.22;100.00;100445.56;5203733;28;20048;-76
2023/03/25 08:53:59;;;;;;;17.55;3.35;;;;;;;10.58;100.00;100441.41;5203306;28;20053;-75
2023/03/25 08:56:30;;;;;;;22.48;3.22;;;;;;;10.89;100.00;100436.03;5203142;28;20124;-75
2023/03/25 08:59:00;;;;;;;24.55;3.40;;;;;;;11.12;100.00;100438.69;5203422;28;20385;-76
2023/03/25 09:01:31;;;;;;;20.85;3.67;;;;;;;11.23;100.00;100434.75;5202401;28;20462;-76
2023/03/25 09:04:02;;;;;;;21.98;4.90;;;;;;;11.31;100.00;100458.88;5203735;28;20029;-76
2023/03/25 09:06:32;;;;;;;22.20;3.85;;;;;;;11.46;100.00;100458.91;5202127;28;20101;-76
2023/03/25 09:09:04;;;;;;;18.45;3.58;;;;;;;11.72;100.00;100449.59;5203663;28;20029;-76
2023/03/25 09:11:34;;;;;;;27.92;7.20;;;;;;;11.58;100.00;100459.28;5202347;28;20018;-76
2023/03/25 09:14:05;;;;;;;21.10;2.97;;;;;;;11.32;100.00;100470.44;5199334;28;20482;-76
2023/03/25 09:16:36;;;;;;;18.23;6.55;;;;;;;11.52;100.00;100455.50;5203178;28;20025;-76
2023/03/25 09:19:07;;;;;;;17.80;3.67;;;;;;;11.74;100.00;100458.28;5202662;28;20075;-75
2023/03/25 09:21:37;;;;;;;22.08;3.78;;;;;;;11.99;100.00;100459.75;5192417;28;20057;-75
2023/03/25 09:24:08;;;;;;;18.67;3.25;;;;;;;12.34;100.00;100470.78;5200429;28;20045;-76
2023/03/25 09:26:39;;;;;;;22.23;3.47;;;;;;;12.31;100.00;100474.69;5202883;28;20033;-75
2023/03/25 09:29:10;;;;;;;17.77;3.45;;;;;;;11.54;100.00;100450.75;5203184;28;20025;-75
2023/03/25 09:31:42;;;;;;;20.50;3.40;;;;;;;11.42;100.00;100468.34;5201271;28;20041;-75
2023/03/25 09:34:12;;;;;;;21.45;3.05;;;;;;;11.47;100.00;100454.38;5203167;28;20079;-75
2023/03/25 09:36:44;;;;;;;20.27;3.05;;;;;;;11.36;100.00;100479.81;5201464;28;20389;-75
2023/03/25 09:39:15;;;;;;;22.00;3.08;;;;;;;11.26;100.00;100476.53;5202844;28;20029;-75
2023/03/25 09:42:11;;;;;;;28.42;3.80;;;;;;;11.40;100.00;100478.44;5202787;28;20040;-75
2023/03/25 09:45:05;;;;;;;19.40;3.47;;;;;;;11.96;100.00;100475.44;5202903;28;20489;-75
2023/03/25 09:47:37;;;;;;;21.58;3.90;;;;;;;12.49;100.00;100485.03;5203005;28;20029;-75
2023/03/25 09:50:13;;;;;;;233.65;83.18;;;;;;;12.74;100.00;100484.72;5203717;28;20041;-75
2023/03/25 09:52:52;;;;;;;26.25;7.95;;;;;;;12.57;100.00;100501.09;5203583;28;20406;-75
2023/03/25 09:55:27;;;;;;;32.10;14.25;;;;;;;12.18;100.00;100506.75;5201889;28;20204;-74
2023/03/25 09:58:13;;;;;;;16.27;3.28;;;;;;;11.70;100.00;100492.78;5202053;28;20048;-75
2023/03/25 10:00:47;;;;;;;20.85;3.70;;;;;;;11.56;100.00;100486.34;5201888;28;20472;-75
2023/03/25 10:03:27;;;;;;;25.35;4.30;;;;;;;11.68;100.00;100505.53;5202724;28;20022;-75
2023/03/25 10:06:17;;;;;;;24.17;3.70;;;;;;;11.71;100.00;100499.81;5201812;28;20540;-75
2023/03/25 10:09:08;;;;;;;14.25;2.70;;;;;;;11.77;100.00;100515.22;5202587;28;20105;-75
2023/03/25 10:12:01;;;;;;;13.70;2.92;;;;;;;11.37;100.00;100513.69;5217167;28;20057;-74
2023/03/25 10:14:36;;;;;;;12.23;2.83;;;;;;;10.96;100.00;100521.19;5199824;28;20038;-75
2023/03/25 10:17:29;;;;;;;18.08;2.88;;;;;;;10.57;100.00;100512.16;5201798;28;20663;-76
2023/03/25 10:20:17;;;;;;;18.25;2.92;;;;;;;10.24;100.00;100502.53;5202260;28;20100;-75
2023/03/25 10:23:25;;;;;;;22.55;3.47;;;;;;;10.12;100.00;100520.81;5202073;28;20048;-75
2023/03/25 10:26:02;;;;;;;69.65;30.02;;;;;;;10.07;100.00;100525.84;5201473;28;20505;-75
2023/03/25 10:28:42;;;;;;;19.30;5.97;;;;;;;10.09;100.00;100510.44;5200090;28;20120;-75
2023/03/25 10:31:16;;;;;;;15.13;2.00;;;;;;;10.11;100.00;100530.72;5217278;28;20034;-75
2023/03/25 10:33:53;;;;;;;18.52;2.60;;;;;;;10.09;100.00;100526.50;5200340;28;20067;-75
2023/03/25 10:36:41;;;;;;;11.63;2.00;;;;;;;10.35;100.00;100519.13;5201381;28;20029;-75
2023/03/25 10:39:18;;;;;;;13.70;3.75;;;;;;;11.20;100.00;100522.91;5190259;28;20576;-75
2023/03/25 10:41:57;;;;;;;20.00;3.78;;;;;;;11.97;100.00;100507.50;5201528;28;20113;-76
2023/03/25 10:44:29;;;;;;;32.00;4.40;;;;;;;12.60;100.00;100511.50;5217017;28;20100;-75
2023/03/25 10:47:05;;;;;;;18.35;3.67;;;;;;;12.85;100.00;100509.31;5201287;28;20121;-75
2023/03/25 10:49:36;;;;;;;19.85;3.15;;;;;;;13.39;100.00;100511.56;5201527;28;20033;-76
2023/03/25 10:52:08;;;;;;;16.80;3.28;;;;;;;13.31;100.00;100494.72;5202278;28;20029;-76
2023/03/25 10:54:43;;;;;;;18.65;3.22;;;;;;;13.39;100.00;100492.69;5201160;28;20029;-75
2023/03/25 10:57:36;;;;;;;13.47;2.83;;;;;;;13.55;100.00;100477.28;5201016;28;20818;-75
2023/03/25 11:03:00;;;;;;;18.38;3.30;;;;;;;13.42;100.00;100486.94;5201935;28;20469;-75
2023/03/25 11:05:32;;;;;;;18.95;3.42;;;;;;;13.75;100.00;100491.75;5201492;28;20025;-75
2023/03/25 11:08:04;;;;;;;23.05;3.42;;;;;;;13.88;100.00;100488.34;5201662;28;20053;-75
2023/03/25 11:10:35;;;;;;;24.50;3.38;;;;;;;14.17;100.00;100485.41;5201699;28;20030;-75
2023/03/25 11:13:11;;;;;;;12.52;2.97;;;;;;;13.98;100.00;100495.03;5198944;28;20025;-75
2023/03/25 11:15:43;;;;;;;16.30;2.65;;;;;;;13.49;100.00;100505.84;5200879;28;20033;-75
2023/03/25 11:18:23;;;;;;;19.35;3.10;;;;;;;12.77;100.00;100522.88;5204012;28;20394;-75
2023/03/25 11:21:10;;;;;;;17.83;2.60;;;;;;;12.02;100.00;100515.00;5196837;28;20030;-75
2023/03/25 11:23:45;;;;;;;14.35;2.80;;;;;;;11.64;100.00;100529.25;5196762;28;20029;-75
2023/03/25 11:26:20;;;;;;;16.50;3.08;;;;;;;11.31;100.00;100525.16;5205013;28;20033;-75
2023/03/25 11:29:05;;;;;;;22.88;3.03;;;;;;;11.33;100.00;100521.28;5205787;28;20040;-75
2023/03/25 11:31:36;;;;;;;22.55;3.55;;;;;;;11.38;100.00;100539.53;5204506;28;20378;-75
2023/03/25 11:34:27;;;;;;;22.95;2.97;;;;;;;11.27;100.00;100538.09;5204424;28;20033;-74
2023/03/25 11:36:57;;;;;;;20.95;2.53;;;;;;;10.93;100.00;100541.16;5204557;28;20112;-75
2023/03/25 11:39:33;;;;;;;13.00;2.65;;;;;;;10.31;100.00;100579.47;5204947;28;20120;-76
2023/03/25 11:42:31;;;;;;;15.32;2.55;;;;;;;9.45;100.00;100555.03;5205115;28;20538;-75
2023/03/25 11:45:02;;;;;;;12.05;2.55;;;;;;;8.99;100.00;100560.81;5205070;28;20068;-75
2023/03/25 11:47:36;;;;;;;17.90;1.88;;;;;;;9.07;100.00;100552.78;5203950;28;20410;-75
2023/03/25 11:50:19;;;;;;;13.45;4.60;;;;;;;9.50;100.00;100555.38;5204761;28;20102;-76
2023/03/25 11:52:55;;;;;;;40.20;16.30;;;;;;;9.89;100.00;100544.84;5204961;28;20108;-76
2023/03/25 11:55:29;;;;;;;12.82;3.05;;;;;;;10.29;100.00;100551.13;5204747;28;20057;-75
2023/03/25 11:58:01;;;;;;;16.20;2.50;;;;;;;10.60;100.00;100544.00;5204662;28;20425;-76